Time;durP1;ratioP1;P1;durP2;ratioP2;P2;SDS_P1;SDS_P2;PMS_P1;PMS_P2;Temp;Humidity;BMP_temperature;BMP_pressure;BME280_temperature;BME280_humidity;BME280_pressure;Samples;Min_cycle;Max_cycle;Signal;HPM_P1;HPM_P2
2023/06/03 00:01:05;;;;;;;8.50;5.23;;;15.50;99.90;;;;;;6171559;23;20805;-78
2023/06/03 00:03:46;;;;;;;8.13;5.20;;;15.50;99.90;;;;;;6187997;23;20407;-77
2023/06/03 00:06:32;;;;;;;6.53;4.87;;;15.40;99.90;;;;;;6188373;23;20497;-77
2023/06/03 00:09:18;;;;;;;7.40;4.90;;;15.40;99.90;;;;;;6188180;23;20458;-78
2023/06/03 00:11:58;;;;;;;10.63;6.00;;;15.30;99.90;;;;;;6189017;23;20441;-79
2023/06/03 00:14:42;;;;;;;8.07;5.57;;;15.30;99.90;;;;;;6188820;23;20415;-77
2023/06/03 00:17:21;;;;;;;8.10;5.30;;;15.30;99.90;;;;;;6189550;23;20411;-79
2023/06/03 00:20:06;;;;;;;8.93;5.40;;;15.30;99.90;;;;;;6189233;23;20461;-77
2023/06/03 00:22:37;;;;;;;7.37;5.10;;;15.30;99.90;;;;;;6189962;23;20411;-78
2023/06/03 00:25:15;;;;;;;14.30;5.40;;;15.20;99.90;;;;;;6190108;23;20410;-78
2023/06/03 00:27:49;;;;;;;9.73;5.47;;;15.20;99.90;;;;;;6189979;23;20465;-78
2023/06/03 00:30:20;;;;;;;10.33;5.80;;;15.10;99.90;;;;;;6187545;23;20877;-78
2023/06/03 00:32:50;;;;;;;7.10;5.37;;;15.10;99.90;;;;;;6187511;23;20423;-80
2023/06/03 00:35:28;;;;;;;12.20;5.00;;;15.10;99.90;;;;;;6187250;23;20407;-78
2023/06/03 00:38:03;;;;;;;10.17;6.17;;;15.10;99.90;;;;;;6188055;23;20410;-79
2023/06/03 00:40:42;;;;;;;9.17;4.93;;;15.00;99.90;;;;;;6186665;23;20442;-79
2023/06/03 00:43:18;;;;;;;7.77;5.27;;;15.00;99.90;;;;;;6186150;23;20403;-78
2023/06/03 00:48:47;;;;;;;5.83;4.40;;;14.90;99.90;;;;;;6152939;23;20794;-77
2023/06/03 00:51:24;;;;;;;9.13;5.00;;;14.90;99.90;;;;;;6202545;23;20426;-77
2023/06/03 00:54:05;;;;;;;13.80;5.80;;;14.90;99.90;;;;;;6206095;23;20387;-78
2023/06/03 00:56:42;;;;;;;5.73;4.60;;;14.80;99.90;;;;;;6200483;23;20407;-78
2023/06/03 00:59:36;;;;;;;11.13;5.23;;;14.80;99.90;;;;;;6199063;23;20390;-78
2023/06/03 01:02:10;;;;;;;9.33;4.90;;;14.70;99.90;;;;;;6198640;23;20431;-78
2023/06/03 01:04:56;;;;;;;8.13;5.30;;;14.70;99.90;;;;;;6199979;23;20432;-78
2023/06/03 01:07:36;;;;;;;7.90;5.40;;;14.70;99.90;;;;;;6205689;23;20387;-77
2023/06/03 01:10:37;;;;;;;10.23;5.67;;;14.30;99.90;;;;;;6206037;23;20411;-79
2023/06/03 01:13:45;;;;;;;;;;;;;;;;;;;;;
2023/06/03 01:16:22;;;;;;;7.97;5.00;;;14.60;99.90;;;;;;6205571;23;20395;-77
2023/06/03 01:18:52;;;;;;;8.40;5.10;;;14.60;99.90;;;;;;6205927;23;20382;-77
2023/06/03 01:21:27;;;;;;;5.40;4.77;;;14.80;99.90;;;;;;6204299;23;20503;-77
2023/06/03 01:24:24;;;;;;;7.80;4.87;;;14.60;99.90;;;;;;6205472;23;20400;-77
2023/06/03 01:27:03;;;;;;;10.27;5.40;;;14.50;99.90;;;;;;6153341;23;20423;-78
2023/06/03 01:29:40;;;;;;;10.97;5.00;;;14.50;99.90;;;;;;6206015;23;20411;-77
2023/06/03 01:32:13;;;;;;;6.60;5.00;;;14.50;99.90;;;;;;6205874;23;20411;-79
2023/06/03 01:34:44;;;;;;;6.97;5.10;;;14.40;99.90;;;;;;6203374;23;20391;-79
2023/06/03 01:37:15;;;;;;;7.70;4.83;;;14.40;99.90;;;;;;6197098;23;20414;-77
2023/06/03 01:39:58;;;;;;;8.10;4.73;;;14.50;99.90;;;;;;6189639;23;20438;-77
2023/06/03 01:42:30;;;;;;;9.17;4.90;;;14.40;99.90;;;;;;6185895;23;20434;-77
2023/06/03 01:45:13;;;;;;;6.07;5.50;;;14.40;99.90;;;;;;6184486;23;20439;-78
2023/06/03 01:47:42;;;;;;;8.07;5.07;;;14.30;99.90;;;;;;6184995;23;20434;-80
2023/06/03 01:50:16;;;;;;;5.50;4.67;;;14.40;99.90;;;;;;6184520;23;20407;-77
2023/06/03 01:52:50;;;;;;;5.23;4.30;;;14.30;99.90;;;;;;6185544;23;20418;-77
2023/06/03 01:55:22;;;;;;;7.10;4.83;;;14.30;99.90;;;;;;6186176;23;20507;-78
2023/06/03 01:58:09;;;;;;;10.07;5.17;;;14.20;99.90;;;;;;6187236;23;20415;-77
2023/06/03 02:00:36;;;;;;;10.57;5.63;;;14.20;99.90;;;;;;6190343;23;20469;-78
2023/06/03 02:03:05;;;;;;;7.70;4.80;;;14.10;99.90;;;;;;6198331;23;20435;-77
2023/06/03 02:05:41;;;;;;;9.13;5.20;;;14.10;99.90;;;;;;6205674;23;20391;-77
2023/06/03 02:08:08;;;;;;;7.17;5.63;;;14.50;99.90;;;;;;6203835;23;20820;-78
2023/06/03 02:10:37;;;;;;;8.67;5.17;;;14.10;99.90;;;;;;6204747;23;20473;-77
2023/06/03 02:13:06;;;;;;;7.00;5.00;;;14.10;99.90;;;;;;6204462;23;20391;-78
2023/06/03 02:15:48;;;;;;;7.83;4.93;;;14.10;99.90;;;;;;6205377;23;20388;-76
2023/06/03 02:21:33;;;;;;;16.23;5.07;;;14.10;99.90;;;;;;6200907;23;20466;-78
2023/06/03 02:24:08;;;;;;;8.33;5.37;;;14.00;99.90;;;;;;6203808;23;20463;-78
2023/06/03 02:30:41;;;;;;;9.90;4.97;;;14.00;99.90;;;;;;6182547;23;20486;-77
2023/06/03 02:33:53;;;;;;;11.60;5.53;;;14.00;99.90;;;;;;6188890;23;20422;-77
2023/06/03 02:36:33;;;;;;;10.20;5.63;;;13.90;99.90;;;;;;6158225;23;20423;-79
2023/06/03 02:39:14;;;;;;;5.93;4.93;;;13.90;99.90;;;;;;6191137;23;20419;-78
2023/06/03 02:41:55;;;;;;;9.27;5.40;;;13.90;99.90;;;;;;6189848;23;20447;-78
2023/06/03 02:45:02;;;;;;;5.33;4.80;;;13.80;99.90;;;;;;6192039;23;20465;-77
2023/06/03 02:48:19;;;;;;;10.53;6.10;;;13.80;99.90;;;;;;6157706;23;20443;-78
2023/06/03 02:50:55;;;;;;;7.83;5.70;;;13.80;99.90;;;;;;6172745;23;20435;-78
2023/06/03 02:53:34;;;;;;;8.60;5.63;;;13.80;99.90;;;;;;6190507;23;20430;-78
2023/06/03 02:56:11;;;;;;;8.90;6.30;;;13.80;99.90;;;;;;6191418;23;20494;-78
2023/06/03 02:58:45;;;;;;;11.13;6.27;;;13.70;99.90;;;;;;6190717;23;20482;-79
2023/06/03 03:05:10;;;;;;;6.97;5.13;;;13.70;99.90;;;;;;6170978;23;20407;-78
2023/06/03 03:07:51;;;;;;;6.03;4.97;;;13.60;99.90;;;;;;6146786;23;20447;-77
2023/06/03 03:10:19;;;;;;;7.83;5.23;;;13.60;99.90;;;;;;6185249;23;20503;-78
2023/06/03 03:12:48;;;;;;;8.00;5.20;;;13.60;99.90;;;;;;6185138;23;20442;-78
2023/06/03 03:15:18;;;;;;;6.83;5.40;;;13.60;99.90;;;;;;6185293;23;20461;-78
2023/06/03 03:17:53;;;;;;;6.23;5.47;;;13.60;99.90;;;;;;6184182;23;20410;-78
2023/06/03 03:20:21;;;;;;;9.40;5.57;;;13.50;99.90;;;;;;6186360;23;20994;-78
2023/06/03 03:22:57;;;;;;;12.83;7.00;;;13.50;99.90;;;;;;6187942;23;20423;-77
2023/06/03 03:26:11;;;;;;;7.87;5.10;;;13.90;99.90;;;;;;6192084;23;20418;-79
2023/06/03 03:28:46;;;;;;;7.97;5.70;;;13.50;99.90;;;;;;6192681;23;20419;-78
2023/06/03 03:31:29;;;;;;;9.63;6.03;;;13.50;99.90;;;;;;6190016;23;20435;-77
2023/06/03 03:34:08;;;;;;;7.90;5.80;;;13.50;99.90;;;;;;6188596;23;20465;-78
2023/06/03 03:36:39;;;;;;;10.00;6.53;;;13.50;99.90;;;;;;6188530;23;20434;-79
2023/06/03 03:39:10;;;;;;;5.77;5.23;;;13.40;99.90;;;;;;6187678;23;20940;-79
2023/06/03 03:41:43;;;;;;;9.30;5.93;;;13.60;99.90;;;;;;6187739;23;20443;-79
2023/06/03 03:44:12;;;;;;;10.37;5.63;;;13.40;99.90;;;;;;6186007;23;20438;-77
2023/06/03 03:46:52;;;;;;;6.40;5.33;;;13.40;99.90;;;;;;6186253;23;20434;-77
2023/06/03 03:49:34;;;;;;;9.47;5.97;;;13.40;99.90;;;;;;6185365;23;20587;-78
2023/06/03 03:52:14;;;;;;;8.10;5.43;;;13.40;99.90;;;;;;6186658;23;20502;-77
2023/06/03 03:57:46;;;;;;;10.00;5.67;;;13.40;99.90;;;;;;6181267;23;20446;-78
2023/06/03 04:00:23;;;;;;;6.30;5.70;;;13.40;99.90;;;;;;6184860;23;20449;-78
2023/06/03 04:02:58;;;;;;;8.80;6.20;;;13.30;99.90;;;;;;6184601;23;20442;-79
2023/06/03 04:05:38;;;;;;;11.70;5.17;;;13.30;99.90;;;;;;6185215;23;20418;-78
2023/06/03 04:08:06;;;;;;;6.83;5.90;;;13.20;99.90;;;;;;6185390;23;20387;-79
2023/06/03 04:10:45;;;;;;;11.97;6.67;;;13.30;99.90;;;;;;6184994;23;20489;-78
2023/06/03 04:13:13;;;;;;;6.53;5.77;;;13.20;99.90;;;;;;6187046;23;20469;-79
2023/06/03 04:15:46;;;;;;;10.37;5.73;;;13.20;99.90;;;;;;6190279;23;20523;-78
2023/06/03 04:18:24;;;;;;;7.07;6.20;;;13.70;99.90;;;;;;6193900;23;20403;-79
2023/06/03 04:20:59;;;;;;;14.93;6.90;;;13.30;99.90;;;;;;6186090;23;20454;-78
2023/06/03 04:23:38;;;;;;;7.80;5.47;;;13.30;99.90;;;;;;6185876;23;20792;-78
2023/06/03 04:26:19;;;;;;;7.10;6.20;;;13.30;99.90;;;;;;6185901;23;20426;-78
2023/06/03 04:29:06;;;;;;;11.53;7.00;;;13.40;99.90;;;;;;6186376;23;20422;-78
2023/06/03 04:31:43;;;;;;;8.67;6.80;;;13.40;99.90;;;;;;6185908;23;20477;-79
2023/06/03 04:34:13;;;;;;;10.17;5.87;;;13.40;99.90;;;;;;6185156;23;20411;-78
2023/06/03 04:36:43;;;;;;;9.13;6.70;;;13.50;99.90;;;;;;6186626;23;20736;-78
2023/06/03 04:39:19;;;;;;;8.23;6.20;;;13.90;99.90;;;;;;6187092;23;20885;-78
2023/06/03 04:41:55;;;;;;;11.67;7.40;;;13.60;99.90;;;;;;6185362;23;20497;-79
2023/06/03 04:44:34;;;;;;;10.43;6.50;;;13.60;99.90;;;;;;6185866;23;20415;-78
2023/06/03 04:47:41;;;;;;;5.90;5.30;;;13.60;99.90;;;;;;6186165;23;20419;-79
2023/06/03 04:53:12;;;;;;;12.60;7.20;;;13.70;99.90;;;;;;6183985;23;20407;-78
2023/06/03 04:55:51;;;;;;;7.47;5.77;;;13.70;99.90;;;;;;6187958;23;20912;-79
2023/06/03 04:58:46;;;;;;;7.00;6.30;;;13.80;99.90;;;;;;6187879;23;20768;-79
2023/06/03 05:01:25;;;;;;;9.00;6.47;;;13.90;99.90;;;;;;6187453;23;21031;-78
2023/06/03 05:03:55;;;;;;;9.90;6.53;;;13.90;99.90;;;;;;6198436;23;20422;-79
2023/06/03 05:06:39;;;;;;;9.73;7.70;;;14.00;99.90;;;;;;6205388;23;20387;-78
2023/06/03 05:09:19;;;;;;;7.47;6.03;;;14.00;99.90;;;;;;6205928;23;20446;-79
2023/06/03 05:11:46;;;;;;;10.60;6.87;;;14.40;99.90;;;;;;6206771;23;20488;-80
2023/06/03 05:14:17;;;;;;;9.53;7.00;;;14.10;99.90;;;;;;6204911;23;20403;-78
2023/06/03 05:16:44;;;;;;;9.50;6.87;;;14.10;99.90;;;;;;6204242;23;20404;-79
2023/06/03 05:19:14;;;;;;;8.20;6.07;;;14.20;99.90;;;;;;6205794;23;20421;-77
2023/06/03 05:21:49;;;;;;;7.70;6.37;;;14.30;99.90;;;;;;6206923;23;20446;-79
2023/06/03 05:24:35;;;;;;;9.17;5.93;;;14.40;99.90;;;;;;6205198;23;20422;-78
2023/06/03 05:27:06;;;;;;;9.27;6.87;;;14.40;99.90;;;;;;6196698;23;20419;-77
2023/06/03 05:29:47;;;;;;;10.40;5.93;;;14.50;99.90;;;;;;6185296;23;20510;-78
2023/06/03 05:32:22;;;;;;;9.53;6.03;;;14.60;99.90;;;;;;6184006;23;20455;-78
2023/06/03 05:35:10;;;;;;;9.90;5.97;;;14.80;99.90;;;;;;6184656;23;20402;-77
2023/06/03 05:38:07;;;;;;;8.90;5.77;;;14.90;99.90;;;;;;6185130;23;20461;-79
2023/06/03 05:43:45;;;;;;;9.53;5.63;;;15.00;99.90;;;;;;6097538;23;20407;-78
2023/06/03 05:46:21;;;;;;;6.27;5.37;;;15.20;99.90;;;;;;6185641;23;20411;-78
2023/06/03 05:49:16;;;;;;;9.70;5.80;;;15.20;99.90;;;;;;6185897;23;20406;-78
2023/06/03 05:51:50;;;;;;;7.00;5.70;;;15.30;99.90;;;;;;6185786;23;20416;-78
2023/06/03 05:54:24;;;;;;;16.40;6.00;;;15.40;99.90;;;;;;6185367;23;20415;-78
2023/06/03 05:57:19;;;;;;;8.00;5.90;;;15.60;99.90;;;;;;6187127;23;20509;-77
2023/06/03 06:00:21;;;;;;;7.70;6.23;;;15.60;99.90;;;;;;6190338;23;20473;-78
2023/06/03 06:03:30;;;;;;;9.40;5.73;;;15.70;99.90;;;;;;6190311;23;20478;-76
2023/06/03 06:06:11;;;;;;;8.63;6.37;;;15.80;99.90;;;;;;6152349;23;20465;-77
2023/06/03 06:09:28;;;;;;;6.67;5.40;;;16.00;99.90;;;;;;6191085;23;20470;-77
2023/06/03 06:12:19;;;;;;;9.60;5.80;;;16.10;99.90;;;;;;6189349;23;20439;-77
2023/06/03 06:15:14;;;;;;;7.40;5.63;;;16.20;99.90;;;;;;6190574;23;20415;-77
2023/06/03 06:21:32;;;;;;;6.13;5.43;;;16.20;99.90;;;;;;6167534;23;20452;-79
2023/06/03 06:24:22;;;;;;;8.53;6.20;;;16.20;99.90;;;;;;6187525;23;20411;-78
2023/06/03 06:30:05;;;;;;;9.03;6.23;;;16.30;99.90;;;;;;5996095;23;20514;-79
2023/06/03 06:41:26;;;;;;;8.63;5.60;;;16.70;99.90;;;;;;5947017;24;20603;-78
2023/06/03 06:44:08;;;;;;;10.97;5.83;;;16.90;99.90;;;;;;5966572;24;20420;-77
2023/06/03 06:46:44;;;;;;;10.37;6.70;;;16.70;99.90;;;;;;6062123;23;20414;-77
2023/06/03 06:49:12;;;;;;;9.90;5.20;;;16.80;99.90;;;;;;6187355;23;20438;-79
2023/06/03 06:51:52;;;;;;;9.10;5.53;;;16.90;99.90;;;;;;6188774;23;20477;-77
2023/06/03 06:54:28;;;;;;;9.10;6.73;;;17.10;99.90;;;;;;6186888;23;20924;-77
2023/06/03 06:57:04;;;;;;;8.53;6.63;;;17.20;99.90;;;;;;6186578;23;20426;-77
2023/06/03 06:59:35;;;;;;;9.93;5.83;;;17.20;99.90;;;;;;6186733;23;20469;-77
2023/06/03 07:08:01;;;;;;;8.93;6.00;;;17.50;99.90;;;;;;6095405;23;20429;-78
2023/06/03 07:13:35;;;;;;;6.10;5.70;;;17.70;99.90;;;;;;6161979;23;20461;-77
2023/06/03 07:39:45;;;;;;;6.50;5.60;;;18.50;99.90;;;;;;5958909;23;20419;-79
2023/06/03 07:42:20;;;;;;;7.70;6.30;;;18.60;99.90;;;;;;6050320;23;20444;-78
2023/06/03 07:44:59;;;;;;;8.80;6.00;;;18.40;99.90;;;;;;6180941;23;20474;-78
2023/06/03 07:47:27;;;;;;;9.43;6.40;;;18.60;99.90;;;;;;6200464;23;20430;-78
2023/06/03 07:49:58;;;;;;;8.60;6.13;;;18.70;99.90;;;;;;6199372;23;21258;-79
2023/06/03 07:52:30;;;;;;;7.47;6.50;;;18.60;99.90;;;;;;6200047;23;20479;-79
2023/06/03 07:55:01;;;;;;;7.70;6.00;;;18.80;99.90;;;;;;6194072;23;20446;-79
2023/06/03 07:57:41;;;;;;;7.77;6.40;;;18.90;99.90;;;;;;6188138;23;20407;-77
2023/06/03 08:00:11;;;;;;;9.57;6.47;;;19.00;99.90;;;;;;6187867;23;20406;-79
2023/06/03 08:02:39;;;;;;;8.97;6.70;;;19.00;99.90;;;;;;6187051;23;20445;-77
2023/06/03 08:05:14;;;;;;;6.97;6.00;;;19.00;99.90;;;;;;6187316;23;20413;-79
2023/06/03 08:08:00;;;;;;;6.73;6.07;;;19.00;99.90;;;;;;6188079;23;20410;-79
2023/06/03 08:13:21;;;;;;;10.30;6.50;;;19.00;99.90;;;;;;6187502;23;20465;-79
2023/06/03 08:16:10;;;;;;;10.90;6.90;;;18.90;99.90;;;;;;6188146;23;20750;-79
2023/06/03 08:18:47;;;;;;;6.57;5.73;;;19.30;99.90;;;;;;6187903;23;20418;-79
2023/06/03 08:21:19;;;;;;;6.30;5.80;;;19.60;99.90;;;;;;6187507;23;20462;-78
2023/06/03 08:23:47;;;;;;;5.67;4.97;;;19.80;99.90;;;;;;6188058;23;20465;-77
2023/06/03 08:26:41;;;;;;;;;;;;;;;;;;;;;
2023/06/03 08:29:40;;;;;;;9.67;7.20;;;19.80;99.90;;;;;;6191997;23;20397;-79
2023/06/03 08:35:28;;;;;;;8.00;5.70;;;20.00;99.90;;;;;;6035607;23;20404;-78
2023/06/03 08:37:59;;;;;;;9.47;6.37;;;20.10;99.90;;;;;;6189041;23;20487;-79
2023/06/03 08:40:36;;;;;;;7.70;6.60;;;20.10;99.90;;;;;;6188502;23;20937;-79
2023/06/03 08:43:08;;;;;;;8.10;5.77;;;20.30;99.90;;;;;;6188191;23;20812;-80
2023/06/03 08:45:42;;;;;;;7.03;6.27;;;20.40;99.90;;;;;;6186657;23;20723;-81
2023/06/03 08:48:23;;;;;;;6.87;6.00;;;20.40;99.90;;;;;;6185014;23;20438;-78
2023/06/03 08:51:02;;;;;;;7.43;6.63;;;20.60;99.90;;;;;;6184022;23;20450;-79
2023/06/03 08:53:35;;;;;;;8.43;6.47;;;20.80;99.90;;;;;;6190813;23;20422;-77
2023/06/03 08:56:08;;;;;;;10.97;6.30;;;20.80;99.90;;;;;;6191419;23;20422;-77
2023/06/03 08:58:58;;;;;;;8.77;6.93;;;21.00;99.90;;;;;;6195935;23;20403;-76
2023/06/03 09:01:57;;;;;;;8.43;6.20;;;21.10;99.90;;;;;;6194282;23;20831;-78
2023/06/03 09:04:42;;;;;;;8.40;6.33;;;21.30;99.90;;;;;;6189247;23;20439;-78
2023/06/03 09:07:29;;;;;;;6.67;5.80;;;21.40;99.90;;;;;;6193325;23;20505;-78
2023/06/03 09:10:05;;;;;;;8.30;6.40;;;21.20;99.90;;;;;;6193330;23;20481;-77
2023/06/03 09:12:52;;;;;;;6.67;5.87;;;21.50;99.90;;;;;;6196741;23;20413;-77
2023/06/03 09:15:30;;;;;;;6.33;5.73;;;21.80;99.90;;;;;;6196728;23;20733;-77
2023/06/03 09:17:59;;;;;;;8.67;6.87;;;22.10;99.90;;;;;;6197394;23;20510;-76
2023/06/03 09:20:28;;;;;;;7.00;6.17;;;22.20;99.90;;;;;;6194522;23;20438;-79
2023/06/03 09:23:05;;;;;;;6.70;6.03;;;22.20;99.90;;;;;;6191918;23;21312;-78
2023/06/03 09:28:25;;;;;;;8.53;7.00;;;22.80;99.90;;;;;;6189672;23;20437;-76
2023/06/03 09:31:01;;;;;;;7.83;6.40;;;22.60;99.90;;;;;;6194535;23;20522;-75
2023/06/03 09:33:29;;;;;;;8.77;6.40;;;22.80;99.90;;;;;;6193146;23;20767;-76
2023/06/03 09:36:11;;;;;;;7.60;6.10;;;22.80;99.90;;;;;;6194533;23;20414;-76
2023/06/03 09:39:16;;;;;;;8.70;6.30;;;23.30;99.90;;;;;;6193191;23;20951;-77
2023/06/03 09:41:47;;;;;;;7.27;6.57;;;23.80;99.90;;;;;;6168921;23;20447;-76
2023/06/03 09:44:26;;;;;;;8.33;6.60;;;24.00;99.90;;;;;;6191049;23;20403;-77
2023/06/03 09:47:08;;;;;;;;;;;;;;;;;;;;;
2023/06/03 09:50:17;;;;;;;9.30;6.17;;;24.10;99.90;;;;;;6189106;23;20438;-77
2023/06/03 09:52:48;;;;;;;7.10;6.40;;;24.00;99.90;;;;;;6187141;23;20501;-76
2023/06/03 09:55:17;;;;;;;6.93;6.33;;;23.80;99.90;;;;;;6185643;23;20421;-77
2023/06/03 09:58:10;;;;;;;7.93;6.30;;;24.00;99.90;;;;;;6184477;23;20415;-75
2023/06/03 10:00:52;;;;;;;6.37;5.77;;;23.60;99.90;;;;;;6184602;23;20415;-76
2023/06/03 10:03:28;;;;;;;6.53;5.93;;;24.00;99.90;;;;;;6183602;23;20442;-76
2023/06/03 10:05:58;;;;;;;7.50;6.77;;;24.00;99.90;;;;;;6185296;23;20430;-76
2023/06/03 10:08:35;;;;;;;7.00;6.30;;;24.30;99.90;;;;;;6190915;23;20407;-76
2023/06/03 10:11:09;;;;;;;9.03;6.20;;;24.70;99.90;;;;;;6190115;23;20525;-76
2023/06/03 10:13:43;;;;;;;9.43;6.67;;;25.10;99.90;;;;;;6184812;23;20394;-76
2023/06/03 10:19:39;;;;;;;7.17;5.83;;;24.80;99.90;;;;;;6179611;23;20905;-77
2023/06/03 10:22:13;;;;;;;7.20;6.50;;;24.50;99.90;;;;;;6181078;23;20506;-77
2023/06/03 10:24:46;;;;;;;7.30;6.60;;;24.60;99.90;;;;;;6183359;23;20407;-75
2023/06/03 10:27:20;;;;;;;9.10;6.30;;;25.20;99.90;;;;;;6183898;23;20423;-76
2023/06/03 10:30:03;;;;;;;7.10;6.03;;;25.80;99.90;;;;;;6186149;23;20506;-79
2023/06/03 10:32:50;;;;;;;6.50;5.90;;;25.90;99.90;;;;;;6184660;23;20462;-78
2023/06/03 10:42:01;;;;;;;8.10;6.17;;;26.90;99.90;;;;;;6145944;23;20427;-77
2023/06/03 10:44:29;;;;;;;8.57;6.80;;;27.30;99.90;;;;;;6188342;23;20435;-78
2023/06/03 10:50:50;;;;;;;8.10;6.37;;;27.50;99.40;;;;;;6187104;23;20474;-76
2023/06/03 10:53:27;;;;;;;6.80;6.20;;;27.40;99.10;;;;;;6195841;23;20410;-79
2023/06/03 10:56:09;;;;;;;7.43;6.60;;;27.40;98.90;;;;;;6194041;23;20406;-77
2023/06/03 10:58:42;;;;;;;7.37;6.50;;;27.60;97.90;;;;;;6198784;23;20837;-77
2023/06/03 11:02:06;;;;;;;6.20;5.80;;;27.60;97.20;;;;;;6197538;23;20458;-78
2023/06/03 11:07:47;;;;;;;7.93;6.87;;;27.80;96.60;;;;;;6108175;23;20405;-76
2023/06/03 11:10:47;;;;;;;8.20;6.80;;;27.50;96.80;;;;;;6170772;23;20924;-77
2023/06/03 11:13:51;;;;;;;7.33;6.50;;;28.00;95.10;;;;;;6187440;23;20407;-78
2023/06/03 11:16:41;;;;;;;6.33;5.83;;;28.40;93.80;;;;;;6186048;23;20417;-78
2023/06/03 11:23:37;;;;;;;7.43;6.63;;;29.20;92.10;;;;;;6091511;23;21312;-76
2023/06/03 11:33:37;;;;;;;7.50;6.33;;;29.10;92.20;;;;;;6099854;23;20394;-78
2023/06/03 11:36:51;;;;;;;;;;;;;;;;;;;;;
2023/06/03 11:50:28;;;;;;;6.80;6.20;;;28.20;92.30;;;;;;5985153;23;20416;-78
2023/06/03 11:53:51;;;;;;;6.57;6.07;;;28.60;91.40;;;;;;5920884;24;20415;-76
2023/06/03 12:03:44;;;;;;;6.80;6.30;;;28.40;91.10;;;;;;5813278;24;20456;-76
2023/06/03 12:07:06;;;;;;;7.00;6.23;;;29.10;89.70;;;;;;5879531;24;20423;-78
2023/06/03 12:09:46;;;;;;;6.50;5.90;;;28.90;89.50;;;;;;5892727;24;20417;-77
2023/06/03 12:16:13;;;;;;;7.03;6.43;;;29.00;86.70;;;;;;6139681;23;20438;-76
2023/06/03 12:57:33;;;;;;;8.50;6.50;;;30.50;80.10;;;;;;5935777;24;20666;-77
2023/06/03 13:00:27;;;;;;;6.87;6.27;;;30.40;80.10;;;;;;5963954;24;20423;-77
2023/06/03 13:03:54;;;;;;;;;;;;;;;;;;;;;
2023/06/03 13:10:52;;;;;;;6.43;5.93;;;29.20;81.10;;;;;;6110443;23;20421;-78
2023/06/03 13:17:09;;;;;;;6.70;6.10;;;30.10;78.50;;;;;;6043970;23;20417;-76
2023/06/03 13:24:23;;;;;;;;;;;;;;;;;;;;;
2023/06/03 13:31:17;;;;;;;6.40;6.00;;;31.00;75.20;;;;;;6049777;23;20767;-76
2023/06/03 13:37:24;;;;;;;7.17;6.47;;;29.90;76.50;;;;;;5973068;23;20432;-77
2023/06/03 13:39:55;;;;;;;6.50;5.97;;;30.20;75.70;;;;;;6166609;23;20439;-77
2023/06/03 13:42:25;;;;;;;6.90;6.30;;;30.20;74.30;;;;;;6171946;23;20442;-76
2023/06/03 13:44:53;;;;;;;6.67;5.70;;;29.70;73.30;;;;;;6171061;23;20410;-77
2023/06/03 13:47:22;;;;;;;9.43;5.97;;;29.60;75.40;;;;;;6177493;23;20443;-78
2023/06/03 13:49:53;;;;;;;6.60;6.00;;;29.70;75.00;;;;;;6163613;23;20415;-76
2023/06/03 13:52:23;;;;;;;6.20;5.80;;;29.80;74.60;;;;;;6164785;23;20527;-78
2023/06/03 13:58:02;;;;;;;6.13;5.63;;;30.40;73.60;;;;;;6134015;23;20404;-77
2023/06/03 14:00:35;;;;;;;6.23;5.67;;;30.70;71.40;;;;;;6160223;23;20444;-77
2023/06/03 14:03:04;;;;;;;8.60;5.77;;;30.50;71.00;;;;;;6159432;23;20436;-77
2023/06/03 14:05:38;;;;;;;6.73;6.13;;;29.90;71.70;;;;;;6160046;23;20420;-77
2023/06/03 14:08:19;;;;;;;9.20;6.43;;;30.00;73.50;;;;;;6163054;23;20440;-78
2023/06/03 14:11:20;;;;;;;6.97;6.27;;;30.30;72.30;;;;;;6166265;23;20459;-78
2023/06/03 14:18:08;;;;;;;;;;;;;;;;;;;;;
2023/06/03 14:28:17;;;;;;;6.40;5.90;;;28.80;74.40;;;;;;5917763;24;20420;-77
2023/06/03 14:30:54;;;;;;;7.07;6.47;;;28.80;74.50;;;;;;5917521;24;20485;-77
2023/06/03 14:33:25;;;;;;;6.70;6.00;;;28.90;74.60;;;;;;6002578;23;20396;-77
2023/06/03 14:36:14;;;;;;;6.63;6.03;;;28.90;73.20;;;;;;6085545;23;20418;-76
2023/06/03 14:38:45;;;;;;;6.37;5.70;;;28.80;72.00;;;;;;6117924;23;20646;-77
2023/06/03 14:41:21;;;;;;;6.63;6.03;;;28.30;72.70;;;;;;6177672;23;20448;-76
2023/06/03 14:43:58;;;;;;;6.77;6.17;;;28.30;73.80;;;;;;6177907;23;20828;-77
2023/06/03 14:46:33;;;;;;;7.43;6.83;;;28.60;74.00;;;;;;6177981;23;20414;-75
2023/06/03 14:49:04;;;;;;;7.73;6.90;;;28.30;74.60;;;;;;6177302;23;20372;-76
2023/06/03 14:51:43;;;;;;;7.17;6.57;;;28.50;75.20;;;;;;6160221;23;20507;-77
2023/06/03 14:54:18;;;;;;;7.80;5.87;;;28.70;75.20;;;;;;6156090;23;20412;-77
2023/06/03 14:57:24;;;;;;;6.53;5.63;;;28.90;74.10;;;;;;6157246;23;20502;-78
2023/06/03 15:03:32;;;;;;;9.23;6.07;;;28.40;73.20;;;;;;6142826;23;20412;-78
2023/06/03 15:06:06;;;;;;;7.00;6.40;;;28.00;74.00;;;;;;6157911;23;20423;-77
2023/06/03 15:08:40;;;;;;;6.60;5.60;;;28.20;74.10;;;;;;6156841;23;20411;-76
2023/06/03 15:20:27;;;;;;;6.40;5.80;;;28.20;73.60;;;;;;6107557;23;20404;-77
2023/06/03 15:23:04;;;;;;;6.30;5.80;;;28.10;75.20;;;;;;6170832;23;20497;-77
2023/06/03 15:51:14;;;;;;;5.77;5.37;;;28.10;74.10;;;;;;6071052;23;20725;-77
2023/06/03 15:53:46;;;;;;;6.37;5.83;;;28.20;73.10;;;;;;6185719;23;20495;-77
2023/06/03 15:56:29;;;;;;;9.20;5.93;;;28.60;72.50;;;;;;6185594;23;20383;-76
2023/06/03 16:02:07;;;;;;;6.00;5.43;;;29.10;70.70;;;;;;6178909;23;20428;-77
2023/06/03 16:04:49;;;;;;;11.97;5.93;;;28.60;72.20;;;;;;6195461;23;20967;-77
2023/06/03 16:07:31;;;;;;;6.10;5.50;;;28.70;72.10;;;;;;6193910;23;20442;-76
2023/06/03 16:10:03;;;;;;;6.73;5.73;;;29.20;72.30;;;;;;6194466;23;20419;-77
2023/06/03 16:12:40;;;;;;;6.60;6.00;;;29.30;70.90;;;;;;6197060;23;20441;-77
2023/06/03 16:15:12;;;;;;;6.63;5.90;;;29.30;71.00;;;;;;6194823;23;20477;-78
2023/06/03 16:17:43;;;;;;;6.50;5.90;;;29.40;71.10;;;;;;6193163;23;20435;-78
2023/06/03 16:20:13;;;;;;;5.97;5.40;;;28.80;70.60;;;;;;6193138;23;20415;-77
2023/06/03 16:22:43;;;;;;;6.27;5.67;;;28.60;70.90;;;;;;6193141;23;20859;-76
2023/06/03 16:25:11;;;;;;;5.37;4.97;;;27.90;71.60;;;;;;6198467;23;20466;-77
2023/06/03 16:27:57;;;;;;;5.87;5.37;;;28.00;72.20;;;;;;6197663;23;20479;-77
2023/06/03 16:30:29;;;;;;;6.50;5.90;;;28.10;71.90;;;;;;6196212;23;20418;-76
2023/06/03 16:36:25;;;;;;;11.87;5.97;;;28.40;71.30;;;;;;6072526;23;20477;-77
2023/06/03 16:39:22;;;;;;;6.20;5.70;;;28.30;71.30;;;;;;6169221;23;20414;-77
2023/06/03 16:41:53;;;;;;;7.03;6.43;;;28.20;71.60;;;;;;6178338;23;20455;-78
2023/06/03 16:44:23;;;;;;;5.90;5.40;;;27.90;72.50;;;;;;6191305;23;20438;-77
2023/06/03 16:46:55;;;;;;;6.67;6.03;;;27.80;73.10;;;;;;6192114;23;20417;-77
2023/06/03 16:49:25;;;;;;;8.47;5.83;;;27.50;73.70;;;;;;6191585;23;20430;-77
2023/06/03 16:51:54;;;;;;;6.57;6.00;;;26.90;75.00;;;;;;6191436;23;20431;-77
2023/06/03 16:54:22;;;;;;;7.50;6.80;;;26.80;75.50;;;;;;6191970;23;20434;-77
2023/06/03 16:56:54;;;;;;;6.10;5.60;;;26.60;76.20;;;;;;6192922;23;20560;-77
2023/06/03 17:02:21;;;;;;;6.47;5.80;;;26.90;75.00;;;;;;6172615;23;20485;-78
2023/06/03 17:05:03;;;;;;;7.13;6.53;;;26.80;75.80;;;;;;6191123;23;20449;-77
2023/06/03 17:07:36;;;;;;;6.30;5.70;;;27.30;74.70;;;;;;6192686;23;20411;-76
2023/06/03 17:10:15;;;;;;;9.10;5.73;;;27.10;74.70;;;;;;6192322;23;20417;-77
2023/06/03 17:12:50;;;;;;;6.43;5.93;;;27.30;74.20;;;;;;6190509;23;20509;-76
2023/06/03 17:18:23;;;;;;;6.93;6.10;;;27.40;74.10;;;;;;6098379;23;20390;-76
2023/06/03 17:20:54;;;;;;;6.40;5.90;;;27.10;74.60;;;;;;6149187;23;20430;-76
2023/06/03 17:23:27;;;;;;;5.70;5.20;;;27.00;74.40;;;;;;6193090;23;20415;-77
2023/06/03 17:25:56;;;;;;;6.50;5.90;;;26.90;74.90;;;;;;6191653;23;20388;-77
2023/06/03 17:28:31;;;;;;;7.70;6.10;;;26.90;75.00;;;;;;6193572;23;20421;-75
2023/06/03 17:33:57;;;;;;;6.43;5.97;;;26.60;75.70;;;;;;6198838;23;20459;-77
2023/06/03 17:36:44;;;;;;;6.50;6.00;;;26.70;75.80;;;;;;6200319;23;20407;-77
2023/06/03 17:42:01;;;;;;;6.83;6.23;;;26.90;75.40;;;;;;6157590;23;20435;-78
2023/06/03 17:44:33;;;;;;;7.37;6.77;;;26.60;75.90;;;;;;6197166;23;20523;-77
2023/06/03 17:47:07;;;;;;;6.93;6.33;;;26.60;76.10;;;;;;6196675;23;20411;-77
2023/06/03 17:49:50;;;;;;;7.03;6.43;;;26.40;76.20;;;;;;6194679;23;20809;-77
2023/06/03 17:58:49;;;;;;;7.07;6.37;;;26.00;76.60;;;;;;6108357;23;20417;-78
2023/06/03 18:01:18;;;;;;;7.33;6.37;;;26.00;77.00;;;;;;6196245;23;20434;-77
2023/06/03 18:03:50;;;;;;;7.60;6.53;;;25.80;77.50;;;;;;6189871;23;20392;-79
2023/06/03 18:06:19;;;;;;;6.67;6.00;;;25.70;77.80;;;;;;6190856;23;20419;-78
2023/06/03 18:09:00;;;;;;;7.10;6.40;;;25.50;78.10;;;;;;6193784;23;20418;-76
2023/06/03 18:11:30;;;;;;;6.70;6.20;;;25.40;78.50;;;;;;6194745;23;20417;-78
2023/06/03 18:13:58;;;;;;;6.40;5.80;;;25.10;79.20;;;;;;6192864;23;20480;-78
2023/06/03 18:16:31;;;;;;;7.43;6.80;;;25.20;79.40;;;;;;6190469;23;20494;-79
2023/06/03 18:19:20;;;;;;;9.17;7.27;;;25.20;79.00;;;;;;6197031;23;20383;-80